This is the latest recevied weather packets stored in our database for station/object KW4UJ. If no packets are shown the sender has not sent any weather packets the latest 10 day(s).
| Time | Temp. | Humidity | Pressure | Rain* | Wind** | Luminosity | Snow |
|---|---|---|---|---|---|---|---|
| 1777507001 | 14.44° C | 98% | 1007 hPa | 0 mm | - | 1 W/m² | - |
| 1777506698 | 14.44° C | 98% | 1007 hPa | 0 mm | - | 1 W/m² | - |
| 1777506394 | 14.44° C | 98% | 1007.3 hPa | 0 mm | - | 1 W/m² | - |
| 1777506090 | 14.44° C | 98% | 1007.3 hPa | 0 mm | - | 1 W/m² | - |
| 1777505786 | 14.44° C | 98% | 1007.4 hPa | 0 mm | - | 2 W/m² | - |
| 1777505483 | 14.44° C | 98% | 1007.2 hPa | 0 mm | - | 4 W/m² | - |
| 1777505180 | 14.44° C | 97% | 1007.1 hPa | 0 mm | - | 6 W/m² | - |
| 1777504876 | 14.44° C | 97% | 1007 hPa | 0 mm | - | 7 W/m² | - |
| 1777504574 | 14.44° C | 97% | 1007.2 hPa | 0 mm | - | 5 W/m² | - |
| 1777504269 | 14.44° C | 97% | 1007.3 hPa | 0 mm | - | 8 W/m² | - |
| 1777503965 | 14.44° C | 97% | 1007.4 hPa | 0 mm | - | 9 W/m² | - |
| 1777503662 | 14.44° C | 97% | 1007.6 hPa | 0 mm | - | 34 W/m² | - |
| 1777503359 | 14.44° C | 97% | 1007.2 hPa | 0 mm | - | 59 W/m² | - |
| 1777503054 | 14.44° C | 97% | 1006.8 hPa | 0 mm | - | 74 W/m² | - |
| 1777502752 | 14.44° C | 97% | 1007.2 hPa | 0 mm | - | 48 W/m² | - |
| 1777502449 | 14.44° C | 97% | 1007.5 hPa | 1.78 mm | - | 31 W/m² | - |
| 1777502146 | 14.44° C | 97% | 1007.4 hPa | 3.05 mm | - | 38 W/m² | - |
| 1777501844 | 14.44° C | 97% | 1007.4 hPa | 3.05 mm | - | 34 W/m² | - |
| 1777501540 | 14.44° C | 96% | 1007.6 hPa | 1.78 mm | - | 24 W/m² | - |
| 1777501237 | 14.44° C | 96% | 1007.8 hPa | 3.05 mm | - | 34 W/m² | - |
| 1777500935 | 14.44° C | 96% | 1007.8 hPa | 3.05 mm | - | 22 W/m² | - |
| 1777500632 | 14.44° C | 96% | 1007.9 hPa | 3.05 mm | - | 9 W/m² | - |
| 1777500329 | 14.44° C | 96% | 1007.7 hPa | 3.05 mm | - | 17 W/m² | - |
| 1777500025 | 14.44° C | 96% | 1007.7 hPa | 3.05 mm | - | 23 W/m² | - |
| 1777499722 | 14.44° C | 96% | 1007.5 hPa | 4.32 mm | - | 29 W/m² | - |
* Rain latest hour (hover to see other rain measurements)
** Current wind speed in m/s (hover to see current wind gust speed)